createdAt,value
2023-04-30T00:27:26.960Z,0.94
2023-04-30T00:32:36.838Z,0.92
2023-04-30T00:37:51.976Z,0.99
2023-04-30T00:43:08.480Z,0.92
2023-04-30T00:48:27.145Z,0.88
2023-04-30T00:53:42.265Z,0.95
2023-04-30T00:58:58.048Z,0.94
2023-04-30T01:04:14.932Z,0.99
2023-04-30T01:09:34.261Z,0.93
2023-04-30T01:14:50.511Z,0.96
2023-04-30T01:20:07.769Z,1.09
2023-04-30T01:25:25.240Z,1.03
2023-04-30T01:30:42.112Z,0.98
2023-04-30T01:35:58.847Z,0.97
2023-04-30T01:41:14.914Z,1.02
2023-04-30T01:46:33.287Z,0.96
2023-04-30T01:51:48.691Z,0.96
2023-04-30T01:57:05.088Z,0.97
2023-04-30T02:02:23.312Z,0.98
2023-04-30T02:07:41.000Z,1.02
2023-04-30T02:12:57.604Z,0.96
2023-04-30T02:18:14.247Z,0.96
2023-04-30T02:23:29.931Z,0.94
2023-04-30T02:28:45.604Z,1.01
2023-04-30T02:34:03.155Z,1.11
2023-04-30T02:39:19.191Z,1.08
2023-04-30T02:44:36.814Z,1.02
2023-04-30T02:49:54.081Z,0.97
2023-04-30T02:55:10.210Z,0.95
2023-04-30T03:00:26.086Z,1
2023-04-30T03:05:42.831Z,1.09
2023-04-30T03:10:59.936Z,1.02
2023-04-30T03:15:23.146Z,1.02
2023-04-30T03:20:39.979Z,0.99
2023-04-30T03:25:56.247Z,0.99
2023-04-30T03:31:13.477Z,0.96
2023-04-30T03:36:30.375Z,0.92
2023-04-30T03:41:46.524Z,1.01
2023-04-30T03:47:03.597Z,1
2023-04-30T03:52:18.766Z,0.95
2023-04-30T03:57:35.365Z,0.97
2023-04-30T04:39:59.584Z,1.05
2023-04-30T04:45:08.674Z,1.09
2023-04-30T04:50:26.300Z,1.09
2023-04-30T04:55:42.736Z,1.14
2023-04-30T05:01:00.206Z,1.17
2023-04-30T05:06:15.957Z,1.17
2023-04-30T05:11:32.735Z,1.21
2023-04-30T05:16:49.084Z,1.24
2023-04-30T05:22:06.308Z,1.23
2023-04-30T05:27:23.791Z,1.23
2023-04-30T05:32:40.402Z,1.19
2023-04-30T05:37:56.673Z,1.11
2023-04-30T05:43:13.209Z,1.18
2023-04-30T05:48:30.210Z,1.26
2023-04-30T05:53:47.640Z,1.15
2023-04-30T05:59:04.126Z,1.12
2023-04-30T06:04:20.759Z,1.08
2023-04-30T06:09:36.928Z,1.11
2023-04-30T06:14:54.273Z,1
2023-04-30T06:20:09.564Z,1.07
2023-04-30T06:25:26.646Z,1.04
2023-04-30T06:30:42.519Z,1.07
2023-04-30T06:35:59.359Z,1.05
2023-04-30T06:41:15.522Z,1.1
2023-04-30T06:46:33.286Z,1.08
2023-04-30T06:51:50.078Z,1.08
2023-04-30T06:57:08.383Z,1.14
2023-04-30T07:02:26.001Z,1.15
2023-04-30T07:07:41.278Z,1.09
2023-04-30T07:12:57.178Z,1.14
2023-04-30T07:18:14.633Z,1.13
2023-04-30T07:23:31.306Z,1.07
2023-04-30T07:28:47.956Z,1.09
2023-04-30T07:34:05.404Z,1.14
2023-04-30T08:16:27.969Z,1.13
2023-04-30T08:21:37.559Z,1.06
2023-04-30T08:26:55.039Z,0.9
2023-04-30T08:32:10.036Z,1.02
2023-04-30T08:37:27.348Z,0.96
2023-04-30T08:42:44.739Z,0.92
2023-04-30T08:48:01.829Z,0.99
2023-04-30T08:53:20.498Z,1.05
2023-04-30T08:58:37.713Z,1.04
2023-04-30T09:03:54.250Z,0.88
2023-04-30T09:09:09.857Z,0.94
2023-04-30T09:14:25.723Z,0.95
2023-04-30T09:19:42.190Z,0.96
2023-04-30T09:24:58.922Z,0.9
2023-04-30T09:30:15.246Z,0.94
2023-04-30T09:35:32.758Z,0.98
2023-04-30T09:40:48.603Z,0.86
2023-04-30T09:46:04.303Z,0.84
2023-04-30T09:51:21.573Z,0.86
2023-04-30T09:56:38.161Z,0.88
2023-04-30T10:01:54.781Z,0.87
2023-04-30T10:07:18.836Z,0.78
2023-04-30T10:12:25.649Z,0.85
2023-04-30T10:17:42.307Z,0.9
2023-04-30T10:23:00.259Z,0.86
2023-04-30T10:28:17.052Z,0.83
2023-04-30T10:33:34.302Z,0.81
2023-04-30T10:38:50.428Z,0.86
2023-04-30T10:44:08.127Z,0.93
2023-04-30T10:49:26.040Z,0.87
2023-04-30T10:54:41.888Z,0.89
2023-04-30T10:59:58.506Z,0.92
2023-04-30T11:05:16.538Z,0.88
2023-04-30T11:10:31.965Z,0.89
2023-04-30T11:58:08.228Z,0.86
2023-04-30T12:03:18.478Z,0.84
2023-04-30T12:08:35.393Z,0.81
2023-04-30T12:13:52.208Z,0.78
2023-04-30T12:19:08.354Z,0.79
2023-04-30T12:24:25.531Z,0.77
2023-04-30T13:01:34.733Z,0.85
2023-04-30T13:06:44.747Z,0.76
2023-04-30T13:12:00.174Z,0.76
2023-04-30T13:17:20.801Z,0.77
2023-04-30T13:22:36.444Z,0.71
2023-04-30T13:27:52.437Z,0.82
2023-04-30T13:33:09.341Z,0.77
2023-04-30T13:38:24.990Z,0.73
2023-04-30T13:43:43.161Z,0.73
2023-04-30T13:48:59.633Z,0.74
2023-04-30T13:54:16.459Z,0.73
2023-04-30T13:59:33.282Z,0.72
2023-04-30T14:05:07.308Z,0.71
2023-04-30T14:10:08.128Z,0.76
2023-04-30T14:15:24.867Z,0.76
2023-04-30T14:20:41.554Z,0.79
2023-04-30T14:25:57.834Z,0.81
2023-04-30T14:31:14.038Z,0.82
2023-04-30T14:36:30.465Z,0.79
2023-04-30T14:41:47.320Z,0.87
2023-04-30T14:47:04.283Z,0.81
2023-04-30T14:52:20.681Z,0.76
2023-04-30T14:57:37.066Z,0.8
2023-04-30T15:02:54.564Z,0.81
2023-04-30T15:08:11.313Z,0.8
2023-04-30T15:13:26.602Z,1.08
2023-04-30T15:18:43.395Z,0.92
2023-04-30T15:23:59.467Z,0.81
2023-04-30T15:29:15.636Z,0.81
2023-04-30T15:34:34.214Z,0.81
2023-04-30T15:39:51.532Z,0.78
2023-04-30T15:45:07.430Z,0.82
2023-04-30T15:50:25.511Z,0.82
2023-04-30T16:37:58.635Z,0.8
2023-04-30T16:43:08.605Z,0.82
2023-04-30T16:48:24.594Z,0.77
2023-04-30T16:53:41.967Z,0.9
2023-04-30T16:58:59.609Z,0.81
2023-04-30T17:04:15.464Z,0.81
2023-04-30T17:09:32.618Z,0.83
2023-04-30T17:14:48.751Z,0.79
2023-04-30T17:20:05.736Z,0.81
2023-04-30T17:25:21.724Z,0.8
2023-04-30T17:30:38.837Z,0.78
2023-04-30T17:35:56.653Z,0.76
2023-04-30T17:41:12.904Z,0.79
2023-04-30T17:46:29.476Z,0.8
2023-04-30T17:51:44.989Z,0.77
2023-04-30T17:57:00.933Z,0.83
2023-04-30T18:02:17.512Z,0.81
2023-04-30T18:07:33.957Z,0.72
2023-04-30T18:12:51.509Z,0.76
2023-04-30T18:18:08.983Z,0.75
2023-04-30T18:23:24.288Z,0.73
2023-04-30T18:28:41.179Z,0.75
2023-04-30T18:33:58.988Z,0.73
2023-04-30T18:39:14.760Z,0.69
2023-04-30T18:44:31.271Z,0.76
2023-04-30T18:49:48.348Z,0.77
2023-04-30T18:55:07.484Z,0.85
2023-04-30T19:00:23.330Z,0.76
2023-04-30T19:05:40.096Z,0.79
2023-04-30T19:10:55.566Z,0.9
2023-04-30T19:16:12.407Z,0.84
2023-04-30T19:21:27.870Z,0.88
2023-04-30T19:26:44.018Z,0.88
2023-04-30T19:32:01.088Z,0.83
2023-04-30T19:37:17.109Z,0.86
2023-04-30T20:40:45.076Z,0.83
2023-04-30T20:45:54.948Z,0.8
2023-04-30T20:51:11.023Z,0.84
2023-04-30T20:56:27.520Z,0.83
2023-04-30T21:01:43.113Z,0.83
2023-04-30T21:06:59.104Z,0.9
2023-04-30T21:12:15.351Z,0.85
2023-04-30T21:17:32.779Z,0.81
2023-04-30T21:22:48.200Z,0.86
2023-04-30T21:28:06.285Z,0.83
2023-04-30T21:33:22.903Z,0.81
2023-04-30T21:38:38.906Z,0.88
2023-04-30T21:43:56.545Z,0.89
2023-04-30T21:49:13.923Z,0.88
2023-04-30T21:54:29.872Z,0.86
2023-04-30T21:59:47.349Z,0.78
2023-04-30T22:05:03.445Z,0.85
2023-04-30T22:10:19.086Z,0.89
2023-04-30T22:15:49.037Z,0.91
2023-04-30T22:20:51.794Z,0.95
2023-04-30T22:26:10.095Z,0.94
2023-04-30T22:31:27.848Z,0.95
2023-04-30T22:36:42.998Z,0.83
2023-04-30T22:42:00.596Z,0.96
2023-04-30T22:47:18.745Z,0.86
2023-04-30T22:52:34.767Z,0.89
2023-04-30T22:57:54.185Z,0.82
2023-04-30T23:03:11.049Z,0.92
2023-04-30T23:08:26.220Z,0.88
2023-04-30T23:13:48.436Z,0.84
2023-04-30T23:19:05.801Z,0.8
2023-04-30T23:24:22.697Z,0.79
2023-04-30T23:29:39.646Z,0.83
